createdAt,value
2023-02-26T00:02:13.284Z,38.20
2023-02-26T00:04:43.680Z,35.20
2023-02-26T00:07:12.980Z,37.20
2023-02-26T00:09:42.217Z,32.05
2023-02-26T00:12:14.400Z,32.70
2023-02-26T00:14:44.332Z,36.65
2023-02-26T00:17:42.419Z,36.78
2023-02-26T00:20:13.908Z,34.65
2023-02-26T00:22:43.751Z,44.65
2023-02-26T00:25:13.352Z,41.58
2023-02-26T00:27:43.174Z,28.10
2023-02-26T00:30:13.842Z,32.25
2023-02-26T00:32:43.927Z,28.40
2023-02-26T00:35:17.718Z,27.83
2023-02-26T00:38:13.563Z,36.25
2023-02-26T00:40:51.257Z,33.47
2023-02-26T00:43:29.483Z,32.30
2023-02-26T00:46:21.039Z,32.30
2023-02-26T00:49:12.795Z,31.45
2023-02-26T00:52:00.177Z,31.90
2023-02-26T00:54:32.500Z,28.75
2023-02-26T00:57:05.221Z,34.13
2023-02-26T00:59:34.558Z,31.40
2023-02-26T01:02:03.672Z,31.17
2023-02-26T01:04:39.452Z,24.17
2023-02-26T01:07:11.670Z,30.83
2023-02-26T01:09:43.633Z,28.50
2023-02-26T01:12:18.418Z,29.33
2023-02-26T01:14:48.458Z,31.92
2023-02-26T01:17:26.284Z,37.30
2023-02-26T01:20:11.151Z,26.80
2023-02-26T01:23:10.832Z,25.55
2023-02-26T01:26:15.110Z,30.52
2023-02-26T01:28:44.793Z,21.23
2023-02-26T01:32:01.608Z,23.52
2023-02-26T01:34:56.647Z,24.08
2023-02-26T01:38:15.409Z,33.22
2023-02-26T01:41:11.235Z,26.13
2023-02-26T01:44:12.107Z,27.58
2023-02-26T01:47:26.712Z,27.02
2023-02-26T01:49:56.537Z,26.33
2023-02-26T01:52:51.941Z,23.77
2023-02-26T01:55:28.605Z,25.05
2023-02-26T01:58:02.425Z,66.68
2023-02-26T02:00:33.312Z,26.35
2023-02-26T02:03:03.412Z,29.42
2023-02-26T02:05:49.317Z,61.38
2023-02-26T02:08:20.033Z,29.05
2023-02-26T02:10:52.271Z,43.70
2023-02-26T02:13:39.213Z,33.97
2023-02-26T02:16:31.103Z,23.98
2023-02-26T02:19:15.116Z,31.95
2023-02-26T02:22:16.011Z,29.90
2023-02-26T02:25:15.360Z,35.60
2023-02-26T02:27:59.566Z,28.60
2023-02-26T02:30:57.826Z,28.88
2023-02-26T02:33:46.063Z,22.80
2023-02-26T02:36:46.233Z,25.63
2023-02-26T02:39:51.425Z,28.88
2023-02-26T02:42:48.376Z,55.90
2023-02-26T02:45:28.719Z,30.13
2023-02-26T02:48:28.155Z,24.42
2023-02-26T02:51:18.824Z,28.92
2023-02-26T02:53:58.945Z,31.63
2023-02-26T02:56:53.178Z,24.70
2023-02-26T02:59:49.418Z,28.40
2023-02-26T03:03:05.774Z,22.20
2023-02-26T03:05:35.039Z,23.02
2023-02-26T03:08:21.929Z,28.45
2023-02-26T03:10:51.296Z,28.20
2023-02-26T03:13:26.181Z,26.48
2023-02-26T03:16:27.890Z,25.60
2023-02-26T03:19:19.726Z,28.40
2023-02-26T03:22:48.541Z,21.85
2023-02-26T03:25:48.554Z,20.02
2023-02-26T03:28:34.713Z,20.92
2023-02-26T03:31:27.163Z,37.33
2023-02-26T03:34:10.205Z,28.25
2023-02-26T03:37:03.789Z,26.02
2023-02-26T03:39:53.973Z,25.10
2023-02-26T03:42:52.517Z,28.35
2023-02-26T03:45:30.430Z,29.05
2023-02-26T03:48:04.198Z,31.35
2023-02-26T03:50:49.661Z,26.40
2023-02-26T03:53:30.945Z,24.38
2023-02-26T03:56:12.943Z,26.38
2023-02-26T03:58:42.183Z,23.88
2023-02-26T04:01:21.476Z,24.92
2023-02-26T04:04:03.307Z,20.25
2023-02-26T04:06:34.379Z,22.00
2023-02-26T04:09:07.170Z,28.77
2023-02-26T04:11:38.412Z,23.08
2023-02-26T04:14:07.610Z,24.42
2023-02-26T04:16:36.727Z,29.08
2023-02-26T04:19:06.017Z,22.38
2023-02-26T04:21:35.492Z,23.95
2023-02-26T04:24:06.009Z,20.30
2023-02-26T04:26:35.134Z,20.27
2023-02-26T04:29:04.301Z,26.15
2023-02-26T04:31:33.601Z,21.52
2023-02-26T04:34:02.812Z,20.80
2023-02-26T04:36:32.525Z,23.77
2023-02-26T04:39:02.392Z,26.77
2023-02-26T04:41:31.546Z,25.45
2023-02-26T04:44:00.773Z,25.23
2023-02-26T04:46:30.552Z,24.02
2023-02-26T04:48:59.916Z,19.80
2023-02-26T04:51:29.185Z,19.75
2023-02-26T04:53:59.207Z,26.17
2023-02-26T04:56:29.376Z,21.23
2023-02-26T04:58:58.488Z,20.20
2023-02-26T05:01:28.098Z,31.65
2023-02-26T05:03:57.361Z,21.88
2023-02-26T05:06:27.114Z,20.38
2023-02-26T05:08:56.455Z,18.20
2023-02-26T05:11:25.765Z,20.00
2023-02-26T05:13:55.318Z,20.38
2023-02-26T05:16:24.765Z,31.88
2023-02-26T05:18:54.087Z,24.38
2023-02-26T05:21:25.877Z,21.58
2023-02-26T05:23:55.386Z,33.13
2023-02-26T05:26:25.339Z,22.77
2023-02-26T05:28:54.850Z,23.60
2023-02-26T05:31:24.272Z,20.75
2023-02-26T05:33:53.496Z,26.02
2023-02-26T05:36:22.821Z,22.60
2023-02-26T05:38:52.141Z,19.33
2023-02-26T05:41:21.445Z,22.92
2023-02-26T05:43:50.798Z,21.90
2023-02-26T05:46:19.977Z,25.40
2023-02-26T05:48:49.796Z,27.35
2023-02-26T05:51:19.038Z,28.55
2023-02-26T05:53:48.429Z,16.13
2023-02-26T05:56:18.001Z,19.80
2023-02-26T05:58:47.559Z,23.40
2023-02-26T06:01:17.200Z,22.48
2023-02-26T06:03:47.027Z,20.50
2023-02-26T06:06:19.426Z,24.58
2023-02-26T06:08:49.550Z,19.85
2023-02-26T06:11:20.838Z,28.88
2023-02-26T06:13:50.705Z,19.33
2023-02-26T06:16:21.455Z,23.00
2023-02-26T06:18:51.325Z,24.27
2023-02-26T06:21:21.106Z,24.33
2023-02-26T06:23:50.289Z,21.02
2023-02-26T06:26:20.298Z,23.52
2023-02-26T06:28:50.739Z,24.83
2023-02-26T06:31:20.209Z,23.75
2023-02-26T06:33:49.446Z,28.13
2023-02-26T06:36:18.648Z,18.60
2023-02-26T06:38:47.977Z,18.60
2023-02-26T06:41:17.165Z,19.08
2023-02-26T06:43:46.790Z,17.83
2023-02-26T06:46:16.878Z,26.02
2023-02-26T06:48:46.279Z,21.95
2023-02-26T06:51:15.548Z,24.05
2023-02-26T06:53:44.710Z,30.02
2023-02-26T06:56:13.885Z,21.10
2023-02-26T06:58:43.232Z,24.23
2023-02-26T07:01:12.465Z,25.83
2023-02-26T07:03:41.702Z,16.10
2023-02-26T07:06:38.288Z,27.30
2023-02-26T07:09:03.816Z,30.58
2023-02-26T07:11:33.165Z,18.70
2023-02-26T07:14:02.531Z,17.00
2023-02-26T07:16:31.739Z,17.52
2023-02-26T07:19:01.005Z,21.65
2023-02-26T07:21:30.231Z,20.70
2023-02-26T07:23:59.425Z,18.10
2023-02-26T07:26:28.790Z,30.10
2023-02-26T07:28:58.032Z,18.83
2023-02-26T07:31:27.362Z,20.20
2023-02-26T07:33:56.829Z,17.48
2023-02-26T07:36:26.476Z,17.20
2023-02-26T07:38:55.922Z,19.50
2023-02-26T07:41:26.230Z,19.25
2023-02-26T07:43:55.511Z,24.33
2023-02-26T07:46:25.357Z,20.95
2023-02-26T07:48:54.848Z,27.45
2023-02-26T07:51:24.513Z,18.05
2023-02-26T07:53:54.056Z,15.98
2023-02-26T07:56:23.543Z,19.27
2023-02-26T07:58:52.871Z,22.23
2023-02-26T08:01:22.088Z,21.88
2023-02-26T08:03:51.401Z,17.50
2023-02-26T08:06:20.607Z,17.92
2023-02-26T08:08:49.838Z,21.40
2023-02-26T08:11:19.117Z,26.15
2023-02-26T08:13:48.633Z,18.35
2023-02-26T08:16:17.893Z,17.63
2023-02-26T08:18:47.276Z,19.63
2023-02-26T08:21:16.520Z,18.42
2023-02-26T08:23:45.786Z,20.48
2023-02-26T08:26:18.019Z,20.27
2023-02-26T08:28:48.496Z,17.77
2023-02-26T08:31:18.776Z,17.83
2023-02-26T08:33:48.340Z,21.35
2023-02-26T08:36:17.528Z,19.83
2023-02-26T08:38:46.695Z,16.73
2023-02-26T08:41:15.997Z,19.75
2023-02-26T08:43:45.640Z,17.77
2023-02-26T08:46:15.234Z,17.67
2023-02-26T08:48:44.422Z,17.15
2023-02-26T08:51:13.709Z,17.52
2023-02-26T08:53:42.844Z,24.40
2023-02-26T08:56:12.007Z,20.05
2023-02-26T08:58:41.355Z,24.70
2023-02-26T09:01:11.529Z,26.23
2023-02-26T09:03:40.724Z,23.25
2023-02-26T09:06:09.933Z,24.73
2023-02-26T09:08:39.158Z,27.73
2023-02-26T09:11:08.270Z,24.85
2023-02-26T09:13:37.354Z,25.13
2023-02-26T09:16:07.210Z,22.05
2023-02-26T09:18:36.569Z,24.85
2023-02-26T09:21:06.074Z,21.88
2023-02-26T09:23:35.264Z,19.55
2023-02-26T09:26:04.982Z,21.23
2023-02-26T09:28:34.126Z,19.35
2023-02-26T09:31:03.690Z,25.45
2023-02-26T09:33:32.870Z,27.25
2023-02-26T09:36:05.873Z,19.83
2023-02-26T09:38:36.858Z,25.80
2023-02-26T09:41:16.303Z,19.27
2023-02-26T09:44:16.939Z,16.58
2023-02-26T09:47:09.852Z,20.85
2023-02-26T09:50:20.884Z,22.33
2023-02-26T09:53:32.449Z,26.05
2023-02-26T09:56:14.945Z,21.90
2023-02-26T09:58:46.566Z,22.05
2023-02-26T10:01:28.025Z,27.00
2023-02-26T10:04:19.423Z,24.70
2023-02-26T10:07:28.436Z,24.85
2023-02-26T10:10:45.993Z,23.25
2023-02-26T10:13:57.112Z,23.70
2023-02-26T10:16:34.615Z,21.30
2023-02-26T10:19:21.490Z,20.10
2023-02-26T10:22:06.322Z,28.38
2023-02-26T10:24:55.737Z,29.52
2023-02-26T10:28:02.721Z,24.65
2023-02-26T10:30:59.686Z,45.65
2023-02-26T10:34:26.340Z,25.75
2023-02-26T10:37:05.385Z,33.97
2023-02-26T10:40:12.450Z,39.72
2023-02-26T10:42:48.876Z,26.38
2023-02-26T10:46:08.884Z,25.88
2023-02-26T10:49:22.531Z,42.05
2023-02-26T10:51:53.976Z,97.65
2023-02-26T10:55:43.173Z,35.65
2023-02-26T10:58:19.085Z,37.25
2023-02-26T11:00:54.712Z,27.77
2023-02-26T11:03:38.348Z,26.73
2023-02-26T11:06:08.723Z,35.22
2023-02-26T11:08:45.059Z,42.20
2023-02-26T11:11:38.630Z,36.35
2023-02-26T11:14:09.570Z,53.25
2023-02-26T11:16:52.184Z,41.03
2023-02-26T11:19:33.254Z,35.85
2023-02-26T11:22:05.186Z,94.13
2023-02-26T11:24:53.508Z,44.72
2023-02-26T11:30:32.129Z,33.67
2023-02-26T11:33:19.421Z,32.63
2023-02-26T11:35:50.059Z,27.08
2023-02-26T11:38:26.619Z,36.65
2023-02-26T11:40:59.632Z,32.58
2023-02-26T11:43:46.117Z,29.77
2023-02-26T11:46:16.786Z,30.40
2023-02-26T11:48:50.447Z,40.03
2023-02-26T11:51:28.279Z,39.15
2023-02-26T11:54:03.723Z,43.50
2023-02-26T11:56:45.670Z,47.70
2023-02-26T11:59:25.505Z,58.65
2023-02-26T12:01:55.779Z,39.60
2023-02-26T12:04:29.035Z,34.78
2023-02-26T12:06:58.763Z,36.78
2023-02-26T12:09:29.088Z,58.25
2023-02-26T12:12:15.481Z,71.72
2023-02-26T12:15:10.537Z,47.80
2023-02-26T12:18:20.484Z,38.90
2023-02-26T12:21:03.574Z,33.08
2023-02-26T12:24:05.865Z,40.17
2023-02-26T12:27:04.987Z,37.33
2023-02-26T12:29:46.057Z,44.72
2023-02-26T12:32:45.307Z,43.20
2023-02-26T12:36:07.277Z,33.67
2023-02-26T12:38:42.199Z,32.72
2023-02-26T12:41:46.632Z,32.70
2023-02-26T12:45:05.711Z,35.63
2023-02-26T12:48:00.631Z,31.77
2023-02-26T12:51:16.444Z,35.63
2023-02-26T12:54:17.606Z,37.88
2023-02-26T12:57:06.644Z,32.45
2023-02-26T13:00:33.553Z,33.80
2023-02-26T13:03:57.504Z,30.98
2023-02-26T13:07:02.769Z,36.13
2023-02-26T13:10:21.352Z,28.30
2023-02-26T13:13:34.492Z,30.20
2023-02-26T13:16:49.696Z,33.13
2023-02-26T13:19:30.204Z,30.92
2023-02-26T13:22:18.288Z,31.27
2023-02-26T13:25:24.770Z,36.20
2023-02-26T13:28:01.098Z,39.80
2023-02-26T13:30:48.513Z,38.65
2023-02-26T13:33:28.276Z,33.15
2023-02-26T13:36:03.180Z,30.33
2023-02-26T13:39:14.919Z,34.88
2023-02-26T13:42:08.446Z,33.33
2023-02-26T13:44:37.830Z,31.85
2023-02-26T13:47:43.456Z,28.48
2023-02-26T13:50:48.625Z,38.33
2023-02-26T13:53:32.333Z,35.95
2023-02-26T13:56:37.462Z,30.17
2023-02-26T13:59:20.152Z,25.35
2023-02-26T14:01:55.171Z,34.55
2023-02-26T14:04:27.839Z,28.13
2023-02-26T14:07:09.501Z,26.60
2023-02-26T14:09:49.679Z,32.45
2023-02-26T14:12:18.844Z,34.25
2023-02-26T14:15:15.250Z,35.72
2023-02-26T14:18:04.633Z,24.10
2023-02-26T14:20:40.237Z,33.15
2023-02-26T14:23:35.355Z,30.50
2023-02-26T14:26:19.787Z,26.35
2023-02-26T14:29:08.339Z,27.73
2023-02-26T14:31:56.584Z,32.25
2023-02-26T14:34:32.053Z,30.08
2023-02-26T14:37:13.166Z,33.90
2023-02-26T14:40:24.104Z,32.13
2023-02-26T14:43:06.193Z,30.13
2023-02-26T14:45:43.448Z,27.38
2023-02-26T14:48:26.349Z,33.22
2023-02-26T14:51:20.080Z,31.10
2023-02-26T14:54:33.381Z,27.77
2023-02-26T14:57:43.417Z,31.25
2023-02-26T15:00:45.344Z,31.25
2023-02-26T15:03:51.573Z,29.63
2023-02-26T15:07:00.798Z,31.63
2023-02-26T15:10:17.925Z,33.40
2023-02-26T15:13:14.217Z,32.45
2023-02-26T15:16:27.789Z,34.88
2023-02-26T15:19:38.195Z,34.90
2023-02-26T15:22:58.120Z,43.15
2023-02-26T15:25:41.504Z,29.13
2023-02-26T15:28:39.732Z,31.45
2023-02-26T15:31:16.691Z,34.55
2023-02-26T15:33:48.801Z,32.83
2023-02-26T15:36:25.555Z,33.88
2023-02-26T15:39:10.248Z,32.55
2023-02-26T15:41:44.188Z,38.60
2023-02-26T15:44:24.781Z,28.20
2023-02-26T15:47:11.135Z,34.45
2023-02-26T15:49:49.446Z,35.60
2023-02-26T15:52:24.004Z,31.75
2023-02-26T15:55:04.206Z,36.92
2023-02-26T15:57:37.763Z,38.40
2023-02-26T16:00:27.544Z,38.03
2023-02-26T16:02:59.892Z,41.05
2023-02-26T16:05:30.719Z,38.30
2023-02-26T16:08:00.100Z,32.60
2023-02-26T16:10:35.587Z,35.08
2023-02-26T16:13:06.492Z,34.97
2023-02-26T16:15:40.711Z,34.85
2023-02-26T16:18:18.387Z,37.00
2023-02-26T16:20:51.847Z,44.53
2023-02-26T16:23:46.425Z,32.92
2023-02-26T16:26:37.034Z,32.13
2023-02-26T16:29:22.749Z,34.33
2023-02-26T16:32:00.106Z,31.45
2023-02-26T16:34:56.653Z,27.13
2023-02-26T16:37:32.702Z,32.53
2023-02-26T16:40:18.685Z,35.15
2023-02-26T16:43:07.382Z,35.03
2023-02-26T16:45:39.290Z,36.28
2023-02-26T16:48:56.208Z,42.22
2023-02-26T16:51:31.373Z,36.75
2023-02-26T16:54:28.991Z,46.90
2023-02-26T16:57:14.954Z,34.03
2023-02-26T16:59:47.188Z,36.28
2023-02-26T17:02:23.277Z,31.15
2023-02-26T17:05:01.441Z,28.95
2023-02-26T17:07:37.587Z,33.35
2023-02-26T17:10:24.128Z,31.23
2023-02-26T17:13:02.672Z,32.42
2023-02-26T17:15:40.025Z,29.45
2023-02-26T17:18:09.564Z,32.00
2023-02-26T17:20:40.064Z,30.60
2023-02-26T17:23:10.673Z,30.25
2023-02-26T17:25:53.429Z,33.47
2023-02-26T17:28:36.452Z,30.42
2023-02-26T17:31:06.782Z,32.17
2023-02-26T17:33:38.141Z,37.55
2023-02-26T17:36:08.472Z,29.83
2023-02-26T17:38:37.665Z,30.23
2023-02-26T17:41:06.893Z,33.08
2023-02-26T17:43:36.255Z,39.10
2023-02-26T17:46:06.718Z,40.08
2023-02-26T17:48:36.537Z,33.13
2023-02-26T17:51:06.103Z,34.25
2023-02-26T17:53:41.803Z,33.08
2023-02-26T17:56:21.734Z,35.35
2023-02-26T17:58:52.862Z,31.77
2023-02-26T18:01:25.041Z,39.67
2023-02-26T18:03:55.698Z,33.67
2023-02-26T18:06:26.789Z,33.50
2023-02-26T18:08:56.183Z,31.50
2023-02-26T18:11:27.008Z,38.72
2023-02-26T18:13:56.435Z,34.97
2023-02-26T18:16:34.255Z,31.55
2023-02-26T18:19:03.992Z,28.73
2023-02-26T18:21:34.236Z,30.13
2023-02-26T18:24:03.943Z,27.55
2023-02-26T18:26:34.822Z,24.60
2023-02-26T18:29:04.093Z,24.10
2023-02-26T18:31:36.766Z,25.58
2023-02-26T18:34:07.380Z,31.27
2023-02-26T18:36:38.608Z,25.60
2023-02-26T18:39:14.580Z,25.98
2023-02-26T18:41:43.876Z,26.60
2023-02-26T18:44:13.256Z,24.38
2023-02-26T18:46:43.689Z,27.38
2023-02-26T18:49:23.320Z,22.48
2023-02-26T18:51:52.849Z,24.60
2023-02-26T18:54:22.212Z,27.35
2023-02-26T18:56:51.366Z,28.15
2023-02-26T18:59:20.691Z,23.63
2023-02-26T19:01:50.190Z,27.02
2023-02-26T19:04:19.323Z,23.55
2023-02-26T19:06:48.655Z,31.02
2023-02-26T19:09:17.773Z,27.95
2023-02-26T19:11:46.955Z,23.15
2023-02-26T19:14:16.152Z,29.95
2023-02-26T19:16:45.303Z,25.33
2023-02-26T19:19:15.043Z,24.23
2023-02-26T19:21:44.273Z,27.13
2023-02-26T19:24:15.120Z,27.27
2023-02-26T19:26:45.446Z,30.38
2023-02-26T19:29:20.488Z,28.33
2023-02-26T19:31:49.836Z,27.65
2023-02-26T19:34:19.162Z,29.60
2023-02-26T19:36:51.389Z,28.70
2023-02-26T19:39:21.039Z,32.85
2023-02-26T19:41:55.032Z,28.58
2023-02-26T19:44:28.423Z,30.88
2023-02-26T19:46:57.669Z,37.70
2023-02-26T19:49:27.497Z,29.70
2023-02-26T19:51:56.660Z,39.38
2023-02-26T19:54:26.103Z,31.30
2023-02-26T19:56:55.328Z,31.65
2023-02-26T19:59:24.495Z,28.50
2023-02-26T20:01:53.703Z,29.52
2023-02-26T20:04:22.816Z,35.33
2023-02-26T20:06:52.135Z,34.20
2023-02-26T20:09:21.342Z,31.35
2023-02-26T20:11:51.387Z,31.17
2023-02-26T20:14:20.529Z,32.67
2023-02-26T20:16:49.706Z,29.63
2023-02-26T20:19:19.550Z,33.42
2023-02-26T20:21:49.778Z,29.65
2023-02-26T20:24:20.950Z,29.38
2023-02-26T20:26:50.144Z,32.38
2023-02-26T20:29:19.599Z,30.65
2023-02-26T20:31:50.887Z,42.38
2023-02-26T20:34:21.213Z,37.35
2023-02-26T20:36:51.764Z,34.22
2023-02-26T20:39:22.789Z,33.03
2023-02-26T20:41:51.932Z,35.28
2023-02-26T20:44:21.027Z,32.50
2023-02-26T20:46:50.358Z,30.35
2023-02-26T20:49:20.693Z,32.63
2023-02-26T20:51:51.466Z,33.20
2023-02-26T20:54:23.841Z,34.75
2023-02-26T20:56:53.262Z,38.40
2023-02-26T20:59:22.778Z,35.10
2023-02-26T21:01:53.012Z,51.90
2023-02-26T21:04:22.426Z,42.38
2023-02-26T21:06:51.667Z,39.30
2023-02-26T21:09:20.817Z,38.53
2023-02-26T21:11:49.964Z,38.90
2023-02-26T21:14:19.139Z,33.97
2023-02-26T21:16:48.335Z,37.45
2023-02-26T21:19:17.520Z,38.90
2023-02-26T21:21:46.629Z,36.05
2023-02-26T21:24:15.760Z,35.22
2023-02-26T21:26:44.939Z,39.95
2023-02-26T21:29:14.033Z,37.33
2023-02-26T21:31:43.249Z,40.08
2023-02-26T21:34:32.747Z,38.65
2023-02-26T21:37:11.234Z,39.15
2023-02-26T21:42:13.436Z,39.05
2023-02-26T21:44:42.828Z,40.13
2023-02-26T21:47:13.545Z,44.88
2023-02-26T21:49:42.702Z,34.92
2023-02-26T21:52:13.582Z,40.50
2023-02-26T21:54:42.758Z,34.65
2023-02-26T21:57:12.023Z,49.65
2023-02-26T21:59:41.207Z,35.28
2023-02-26T22:02:12.858Z,41.92
2023-02-26T22:04:43.065Z,36.83
2023-02-26T22:07:12.228Z,37.50
2023-02-26T22:09:41.403Z,33.55
2023-02-26T22:12:10.512Z,35.83
2023-02-26T22:14:39.715Z,28.98
2023-02-26T22:17:08.986Z,34.85
2023-02-26T22:19:38.414Z,32.05
2023-02-26T22:22:07.593Z,34.85
2023-02-26T22:24:37.587Z,33.67
2023-02-26T22:27:06.682Z,36.40
2023-02-26T22:29:35.870Z,34.50
2023-02-26T22:32:05.106Z,28.60
2023-02-26T22:34:35.255Z,43.80
2023-02-26T22:37:04.974Z,37.97
2023-02-26T22:39:34.240Z,35.10
2023-02-26T22:42:03.639Z,35.42
2023-02-26T22:44:32.795Z,39.72
2023-02-26T22:47:02.717Z,53.70
2023-02-26T22:49:31.915Z,46.63
2023-02-26T22:52:01.091Z,46.92
2023-02-26T22:54:30.392Z,39.25
2023-02-26T22:56:59.592Z,39.55
2023-02-26T22:59:28.757Z,41.75
2023-02-26T23:01:57.955Z,41.08
2023-02-26T23:04:27.432Z,39.30
2023-02-26T23:06:56.606Z,44.95
2023-02-26T23:09:25.880Z,40.55
2023-02-26T23:11:55.251Z,46.15
2023-02-26T23:14:25.196Z,45.50
2023-02-26T23:16:54.693Z,46.92
2023-02-26T23:19:23.889Z,48.03
2023-02-26T23:21:53.418Z,44.40
2023-02-26T23:24:22.609Z,49.58
2023-02-26T23:26:52.137Z,43.67
2023-02-26T23:29:21.512Z,48.38
2023-02-26T23:31:50.863Z,47.53
2023-02-26T23:34:20.431Z,48.97
2023-02-26T23:36:49.646Z,53.47
2023-02-26T23:39:18.948Z,51.13
2023-02-26T23:41:48.191Z,49.50
2023-02-26T23:44:17.356Z,48.97
2023-02-26T23:46:46.851Z,68.97
2023-02-26T23:49:18.668Z,59.33
2023-02-26T23:51:48.611Z,61.50
2023-02-26T23:54:17.840Z,53.53
2023-02-26T23:56:47.518Z,64.75
2023-02-26T23:59:18.869Z,60.13
